Terminal Aerodrome Forecast
Issued by NWS Northern Indiana

Home | Current Version | Previous Version | Graphics & Text | Print | Product List | Glossary On
Versions: 1 2 3 4 5 6 7 8 9 10 11 12 13 14 15 16 17 18 19 20 21 22 23 24 25
000
FTUS43 KIWX 211900 AAA
TAFFWA
TAF AMD
KFWA 211949Z 2120/2218 20010KT P6SM VCTS SCT015 BKN080CB
      TEMPO 2120/2124 3SM TSRA BKN015CB
     FM220000 21004KT P6SM -SHRA OVC100
     FM220500 20005KT 4SM BR BKN050
     FM221100 22003KT 2SM BR BKN025=

USA.gov is the U.S. government's official web portal to all federal, state and local government web resources and services.